Portada
METAR-TAF:

METAR-TAF

Aeroports :

Tampico, Mèxic

latitud: 22-17N, longitud: 097-52W, altitud: 24 m

Observació

L'informe es va fer fa 43 minuts, a les 16:40 UTC
Vent 6 kt del Sud/Sud-Oest
Temperatura 30°C
Humitat 62%
Pressió 1016 hPa
Visibilitat: 11.3 km
Núvols disperses a una alçada de 1500 ft
Cel ennuvolat a una alçada de 20000 ft

METAR: MMTM 171640Z 20006KT 7SM SCT015 BKN200 30/22 A3000 RMK 8/108 HZY

Hora: 12:23 (17:23 UTC)

Pronòstic

L'informe es va fer fa 13 hores i 5 minuts, a les 04:18 UTC
Pronòstic vàlid del 17 a les 06 UTC al 18 a les 06 UTC
Vent 5 kt del Est/Sud-Est
Visibilitat: 10 km
Núvols disperses a una alçada de 1500 ft
Temporalment
l' 17 a les 10 UTC al 17 a les 14 UTC
Visibilitat: 4.8 km
Cel ennuvolat a una alçada de 1200 ft
boirina
A partir de les 17 a les 1700 UTC
Vent 10 kt del Sud/Sud-Est
Visibilitat: 10 km
Núvols disperses a una alçada de 1500 ft

TAF: MMTM 170418Z 1706/1806 12005KT P6SM SCT015 TEMPO 1710/1714 3SM BR BKN012 FM171700 16010KT P6SM SCT015

Observacions i pronòstics meteorològics de més de 4000 aeroports (METAR i TAF).

Les estacions disponibles són els punts grocs i vermells al mapa.

Posi el ratolí al punt desitjat per veure el nom de l'estació.

Feu clic per veure les observacions i els pronòstics meteorològics.

Per canviar el mapa: feu clic els botons verds amb una creu de color negre per apropar; al botó verd amb un guió per allunyar la imatge; o en les fletxes verdes per a mapes adjacents.


METAR-TAF: